createdAt,value
2024-05-09T00:00:06.354Z,116.22
2024-05-09T00:01:04.163Z,117.44
2024-05-09T00:02:04.193Z,116.26
2024-05-09T00:03:04.170Z,115.42
2024-05-09T00:04:04.426Z,116.47
2024-05-09T00:05:04.390Z,116.25
2024-05-09T00:06:04.461Z,114.78
2024-05-09T00:07:04.303Z,113.89
2024-05-09T00:08:04.458Z,113.90
2024-05-09T00:09:04.400Z,115.80
2024-05-09T00:10:05.568Z,114.04
2024-05-09T00:11:04.577Z,114.26
2024-05-09T00:12:04.536Z,116.37
2024-05-09T00:13:04.488Z,114.68
2024-05-09T00:14:04.536Z,115.46
2024-05-09T00:15:04.496Z,115.39
2024-05-09T00:16:04.494Z,117.46
2024-05-09T00:17:04.557Z,115.47
2024-05-09T00:18:05.310Z,114.51
2024-05-09T00:19:04.646Z,116.36
2024-05-09T00:20:11.056Z,117.19
2024-05-09T00:21:05.570Z,117.21
2024-05-09T00:22:04.565Z,117.27
2024-05-09T00:23:04.588Z,117.23
2024-05-09T00:24:04.555Z,116.75
2024-05-09T00:25:04.560Z,115.81
2024-05-09T00:26:04.603Z,113.79
2024-05-09T00:27:04.596Z,116.49
2024-05-09T00:28:04.594Z,115.88
2024-05-09T00:29:04.649Z,116.85
2024-05-09T00:30:07.072Z,115.89
2024-05-09T00:31:04.784Z,114.27
2024-05-09T00:32:04.975Z,112.99
2024-05-09T00:33:06.028Z,115.23
2024-05-09T00:34:05.190Z,115.65
2024-05-09T00:35:05.043Z,116.28
2024-05-09T00:36:05.044Z,116.07
2024-05-09T00:37:05.117Z,115.14
2024-05-09T00:38:05.311Z,114.72
2024-05-09T00:39:05.208Z,114.79
2024-05-09T00:40:07.425Z,115.64
2024-05-09T00:41:05.317Z,115.64
2024-05-09T00:42:05.320Z,112.87
2024-05-09T00:43:05.310Z,114.50
2024-05-09T00:44:05.353Z,113.77
2024-05-09T00:45:05.331Z,112.83
2024-05-09T00:46:05.335Z,113.22
2024-05-09T00:47:05.420Z,113.15
2024-05-09T00:48:05.594Z,112.54
2024-05-09T00:49:05.422Z,112.85
2024-05-09T00:50:09.934Z,113.78
2024-05-09T00:51:06.530Z,113.87
2024-05-09T00:52:05.382Z,114.06
2024-05-09T00:53:05.454Z,114.63
2024-05-09T00:54:05.375Z,114.41
2024-05-09T00:55:05.374Z,112.92
2024-05-09T00:56:05.449Z,114.25
2024-05-09T00:57:05.434Z,112.26
2024-05-09T00:58:05.441Z,112.46
2024-05-09T00:59:05.462Z,113.18
2024-05-09T01:00:07.788Z,112.37
2024-05-09T01:01:05.548Z,112.46
2024-05-09T01:02:05.484Z,112.08
2024-05-09T01:03:05.920Z,112.97
2024-05-09T01:04:05.510Z,111.62
2024-05-09T01:05:05.519Z,114.08
2024-05-09T01:06:05.477Z,111.49
2024-05-09T01:07:05.438Z,110.63
2024-05-09T01:08:05.535Z,111.04
2024-05-09T01:09:05.460Z,110.64
2024-05-09T01:10:09.188Z,111.00
2024-05-09T01:11:06.533Z,111.05
2024-05-09T01:12:05.629Z,111.14
2024-05-09T01:13:05.955Z,110.99
2024-05-09T01:14:05.655Z,111.35
2024-05-09T01:15:05.550Z,110.86
2024-05-09T01:16:05.549Z,107.07
2024-05-09T01:17:05.571Z,108.70
2024-05-09T01:18:05.699Z,110.04
2024-05-09T01:19:05.637Z,106.92
2024-05-09T01:20:06.436Z,109.16
2024-05-09T01:21:05.632Z,109.18
2024-05-09T01:22:05.587Z,109.46
2024-05-09T01:23:05.607Z,108.56
2024-05-09T01:24:05.582Z,109.03
2024-05-09T01:25:05.599Z,108.24
2024-05-09T01:26:05.677Z,110.11
2024-05-09T01:27:05.673Z,107.84
2024-05-09T01:28:05.647Z,107.42
2024-05-09T01:29:05.679Z,106.39
2024-05-09T01:30:09.517Z,106.50
2024-05-09T01:31:06.641Z,106.62
2024-05-09T01:32:05.747Z,106.90
2024-05-09T01:33:07.390Z,105.10
2024-05-09T01:34:05.675Z,108.43
2024-05-09T01:35:05.695Z,107.20
2024-05-09T01:36:05.655Z,104.10
2024-05-09T01:37:05.708Z,105.19
2024-05-09T01:38:05.870Z,104.98
2024-05-09T01:39:05.665Z,104.74
2024-05-09T01:40:09.560Z,102.41
2024-05-09T01:41:06.686Z,102.63
2024-05-09T01:42:05.702Z,102.96
2024-05-09T01:43:05.699Z,103.81
2024-05-09T01:44:05.740Z,103.60
2024-05-09T01:45:05.684Z,105.31
2024-05-09T01:46:05.688Z,103.60
2024-05-09T01:47:05.715Z,106.48
2024-05-09T01:48:05.877Z,102.31
2024-05-09T01:49:05.857Z,104.02
2024-05-09T01:50:08.984Z,104.92
2024-05-09T01:51:06.770Z,104.70
2024-05-09T01:52:05.740Z,105.12
2024-05-09T01:53:05.906Z,102.74
2024-05-09T01:54:05.724Z,102.92
2024-05-09T01:55:06.718Z,103.57
2024-05-09T01:56:05.742Z,101.76
2024-05-09T01:57:05.770Z,102.67
2024-05-09T01:58:05.781Z,102.71
2024-05-09T01:59:05.773Z,103.31
2024-05-09T02:00:07.714Z,103.52
2024-05-09T02:01:05.876Z,101.80
2024-05-09T02:02:05.934Z,102.26
2024-05-09T02:03:05.977Z,102.19
2024-05-09T02:04:06.116Z,101.69
2024-05-09T02:05:06.099Z,99.74
2024-05-09T02:06:05.849Z,101.46
2024-05-09T02:07:05.833Z,100.69
2024-05-09T02:08:05.830Z,101.70
2024-05-09T02:09:05.791Z,100.58
2024-05-09T02:10:13.605Z,100.14
2024-05-09T02:11:06.866Z,100.26
2024-05-09T02:12:06.061Z,100.67
2024-05-09T02:13:05.806Z,100.50
2024-05-09T02:14:05.851Z,99.02
2024-05-09T02:15:05.804Z,99.43
2024-05-09T02:16:05.820Z,98.28
2024-05-09T02:17:05.846Z,100.28
2024-05-09T02:18:06.050Z,98.70
2024-05-09T02:19:05.909Z,100.06
2024-05-09T02:20:06.294Z,97.45
2024-05-09T02:21:05.868Z,97.31
2024-05-09T02:22:05.822Z,99.15
2024-05-09T02:23:06.324Z,99.23
2024-05-09T02:24:05.856Z,98.35
2024-05-09T02:25:05.870Z,97.72
2024-05-09T02:26:06.024Z,99.19
2024-05-09T02:27:06.114Z,96.55
2024-05-09T02:28:06.043Z,98.68
2024-05-09T02:29:06.110Z,98.29
2024-05-09T02:30:12.307Z,97.60
2024-05-09T02:31:07.072Z,97.61
2024-05-09T02:32:06.125Z,97.75
2024-05-09T02:33:06.329Z,96.93
2024-05-09T02:34:06.201Z,96.70
2024-05-09T02:35:06.111Z,98.22
2024-05-09T02:36:06.082Z,97.07
2024-05-09T02:37:06.127Z,94.55
2024-05-09T02:38:06.165Z,97.25
2024-05-09T02:39:06.091Z,96.55
2024-05-09T02:40:09.250Z,95.21
2024-05-09T02:41:07.322Z,95.24
2024-05-09T02:42:06.116Z,95.63
2024-05-09T02:43:06.359Z,95.69
2024-05-09T02:44:06.182Z,96.12
2024-05-09T02:45:06.112Z,95.28
2024-05-09T02:46:06.104Z,97.09
2024-05-09T02:47:06.154Z,98.06
2024-05-09T02:48:06.421Z,96.03
2024-05-09T02:49:06.255Z,96.50
2024-05-09T02:50:07.981Z,94.67
2024-05-09T02:51:06.269Z,94.58
2024-05-09T02:52:06.134Z,94.68
2024-05-09T02:53:06.350Z,95.46
2024-05-09T02:54:06.217Z,95.37
2024-05-09T02:55:06.235Z,95.69
2024-05-09T02:56:06.301Z,95.13
2024-05-09T02:57:06.379Z,92.57
2024-05-09T02:58:06.373Z,95.67
2024-05-09T02:59:06.396Z,93.26
2024-05-09T03:00:14.939Z,91.84
2024-05-09T03:01:07.643Z,91.98
2024-05-09T03:02:06.550Z,92.32
2024-05-09T03:03:06.952Z,93.14
2024-05-09T03:04:06.600Z,93.02
2024-05-09T03:05:06.507Z,90.94
2024-05-09T03:06:06.490Z,92.79
2024-05-09T03:07:06.777Z,93.93
2024-05-09T03:08:06.561Z,91.28
2024-05-09T03:09:06.487Z,93.36
2024-05-09T03:10:12.211Z,89.23
2024-05-09T03:11:07.597Z,89.35
2024-05-09T03:12:06.604Z,89.40
2024-05-09T03:13:06.523Z,90.32
2024-05-09T03:14:06.534Z,90.23
2024-05-09T03:15:06.495Z,91.92
2024-05-09T03:16:06.551Z,90.95
2024-05-09T03:17:06.627Z,91.53
2024-05-09T03:18:07.157Z,93.19
2024-05-09T03:19:06.602Z,93.12
2024-05-09T03:20:11.657Z,91.75
2024-05-09T03:21:07.602Z,91.86
2024-05-09T03:22:06.515Z,92.00
2024-05-09T03:23:06.700Z,92.27
2024-05-09T03:24:06.513Z,92.37
2024-05-09T03:25:06.526Z,92.04
2024-05-09T03:26:06.541Z,93.03
2024-05-09T03:27:06.601Z,93.12
2024-05-09T03:28:06.560Z,92.66
2024-05-09T03:29:06.558Z,93.10
2024-05-09T03:30:07.661Z,90.83
2024-05-09T03:31:06.522Z,93.25
2024-05-09T03:32:06.598Z,94.07
2024-05-09T03:33:06.652Z,92.27
2024-05-09T03:34:06.755Z,92.89
2024-05-09T03:35:06.598Z,88.85
2024-05-09T03:36:08.961Z,91.69
2024-05-09T03:37:06.670Z,91.75
2024-05-09T03:38:06.629Z,91.87
2024-05-09T03:39:06.564Z,91.16
2024-05-09T03:40:09.357Z,91.97
2024-05-09T03:41:07.637Z,91.79
2024-05-09T03:42:06.591Z,91.75
2024-05-09T03:43:06.578Z,92.21
2024-05-09T03:44:06.598Z,91.12
2024-05-09T03:45:06.581Z,92.42
2024-05-09T03:46:06.584Z,90.84
2024-05-09T03:47:06.683Z,90.94
2024-05-09T03:48:06.736Z,89.70
2024-05-09T03:49:06.747Z,90.13
2024-05-09T03:50:14.965Z,91.21
2024-05-09T03:51:07.701Z,91.35
2024-05-09T03:52:06.598Z,91.60
2024-05-09T03:53:06.678Z,91.66
2024-05-09T03:54:06.613Z,88.20
2024-05-09T03:55:06.606Z,91.48
2024-05-09T03:56:06.632Z,88.76
2024-05-09T03:57:06.705Z,90.26
2024-05-09T03:58:06.602Z,89.84
2024-05-09T03:59:06.638Z,88.62
2024-05-09T04:00:14.450Z,88.67
2024-05-09T04:01:07.610Z,88.81
2024-05-09T04:02:06.717Z,89.44
2024-05-09T04:03:08.743Z,89.66
2024-05-09T04:04:06.635Z,88.89
2024-05-09T04:05:06.652Z,89.66
2024-05-09T04:06:06.614Z,90.47
2024-05-09T04:07:06.653Z,93.37
2024-05-09T04:08:06.679Z,95.20
2024-05-09T04:09:06.624Z,94.93
2024-05-09T04:10:09.015Z,92.41
2024-05-09T04:11:06.729Z,92.55
2024-05-09T04:12:06.693Z,93.10
2024-05-09T04:13:06.640Z,93.89
2024-05-09T04:14:06.720Z,93.72
2024-05-09T04:15:09.606Z,95.49
2024-05-09T04:16:06.652Z,92.60
2024-05-09T04:17:06.729Z,92.92
2024-05-09T04:18:07.050Z,92.51
2024-05-09T04:19:06.769Z,93.40
2024-05-09T04:20:08.535Z,92.89
2024-05-09T04:21:06.689Z,92.56
2024-05-09T04:22:06.645Z,92.91
2024-05-09T04:23:07.558Z,93.27
2024-05-09T04:24:06.658Z,94.03
2024-05-09T04:25:06.666Z,95.50
2024-05-09T04:26:06.678Z,95.53
2024-05-09T04:27:06.721Z,93.11
2024-05-09T04:28:06.693Z,92.32
2024-05-09T04:29:06.714Z,94.96
2024-05-09T04:30:10.075Z,92.33
2024-05-09T04:31:07.683Z,92.53
2024-05-09T04:32:06.762Z,93.19
2024-05-09T04:33:08.043Z,93.66
2024-05-09T04:34:06.860Z,95.32
2024-05-09T04:35:06.705Z,94.65
2024-05-09T04:36:06.701Z,97.24
2024-05-09T04:37:13.966Z,50.00
2024-05-09T04:38:14.941Z,50.00
2024-05-09T04:39:13.984Z,50.00
2024-05-09T04:40:24.151Z,50.00
2024-05-09T04:41:15.026Z,50.00
2024-05-09T04:42:14.060Z,50.00
2024-05-09T04:43:14.144Z,50.00
2024-05-09T04:44:14.086Z,50.00
2024-05-09T04:45:14.058Z,50.00
2024-05-09T04:46:14.083Z,52.50
2024-05-09T04:47:14.190Z,50.64
2024-05-09T04:48:14.437Z,51.11
2024-05-09T04:49:14.336Z,50.00
2024-05-09T04:50:21.170Z,50.38
2024-05-09T04:51:15.136Z,50.44
2024-05-09T04:52:14.111Z,50.92
2024-05-09T04:53:14.187Z,51.21
2024-05-09T04:54:26.001Z,50.91
2024-05-09T04:55:15.143Z,50.46
2024-05-09T04:56:14.277Z,50.42
2024-05-09T04:57:14.172Z,50.45
2024-05-09T04:58:14.171Z,50.52
2024-05-09T04:59:14.292Z,49.04
2024-05-09T05:00:18.076Z,51.16
2024-05-09T05:01:15.340Z,51.30
2024-05-09T05:02:14.316Z,51.36
2024-05-09T05:03:15.924Z,51.22
2024-05-09T05:04:14.570Z,52.75
2024-05-09T05:05:14.694Z,52.59
2024-05-09T05:06:14.645Z,51.71
2024-05-09T05:07:14.698Z,50.00
2024-05-09T05:08:15.239Z,51.79
2024-05-09T05:09:14.865Z,51.70
2024-05-09T05:10:21.649Z,52.21
2024-05-09T05:11:16.033Z,52.26
2024-05-09T05:12:15.053Z,52.54
2024-05-09T05:13:14.911Z,52.42
2024-05-09T05:14:14.912Z,50.96
2024-05-09T05:15:14.904Z,50.87
2024-05-09T05:16:14.925Z,51.51
2024-05-09T05:17:14.948Z,51.97
2024-05-09T05:18:15.047Z,50.41
2024-05-09T05:19:17.485Z,50.00
2024-05-09T05:20:18.045Z,50.46
2024-05-09T05:21:15.973Z,50.63
2024-05-09T05:22:14.931Z,50.84
2024-05-09T05:23:15.171Z,50.93
2024-05-09T05:24:14.938Z,50.42
2024-05-09T05:25:14.945Z,52.06
2024-05-09T05:26:14.963Z,51.74
2024-05-09T05:27:14.950Z,50.68
2024-05-09T05:28:14.955Z,53.04
2024-05-09T05:29:17.221Z,53.13
2024-05-09T05:30:21.332Z,52.92
2024-05-09T05:31:16.025Z,53.07
2024-05-09T05:32:15.181Z,53.13
2024-05-09T05:33:15.429Z,53.03
2024-05-09T05:34:15.021Z,52.93
2024-05-09T05:35:15.042Z,52.47
2024-05-09T05:36:15.023Z,51.83
2024-05-09T05:37:15.028Z,53.03
2024-05-09T05:38:15.083Z,53.35
2024-05-09T05:39:15.044Z,51.64
2024-05-09T05:40:25.222Z,51.94
2024-05-09T05:41:16.113Z,51.95
2024-05-09T05:42:15.052Z,51.51
2024-05-09T05:43:15.070Z,49.68
2024-05-09T05:44:15.106Z,47.48
2024-05-09T05:45:15.073Z,47.14
2024-05-09T05:46:15.084Z,50.06
2024-05-09T05:47:15.215Z,50.29
2024-05-09T05:48:15.160Z,50.09
2024-05-09T05:49:15.214Z,50.33
2024-05-09T05:50:24.242Z,50.98
2024-05-09T05:51:16.342Z,51.07
2024-05-09T05:52:15.179Z,51.16
2024-05-09T05:53:15.493Z,51.00
2024-05-09T05:54:15.193Z,51.34
2024-05-09T05:55:15.192Z,47.88
2024-05-09T05:56:15.223Z,51.47
2024-05-09T05:57:15.210Z,51.57
2024-05-09T05:58:15.234Z,51.56
2024-05-09T05:59:15.905Z,51.14
2024-05-09T06:00:25.430Z,50.37
2024-05-09T06:01:16.238Z,50.39
2024-05-09T06:02:15.300Z,50.53
2024-05-09T06:03:15.272Z,50.25
2024-05-09T06:04:15.214Z,49.79
2024-05-09T06:05:15.227Z,49.13
2024-05-09T06:06:15.196Z,52.89
2024-05-09T06:07:15.188Z,52.67
2024-05-09T06:08:15.293Z,53.27
2024-05-09T06:09:15.183Z,52.39
2024-05-09T06:10:21.379Z,52.68
2024-05-09T06:11:16.227Z,52.71
2024-05-09T06:12:15.260Z,52.86
2024-05-09T06:13:15.157Z,50.85
2024-05-09T06:14:15.173Z,51.22
2024-05-09T06:15:15.168Z,50.92
2024-05-09T06:16:15.138Z,51.30
2024-05-09T06:17:15.223Z,51.66
2024-05-09T06:18:15.316Z,52.90
2024-05-09T06:19:15.305Z,51.35
2024-05-09T06:20:20.717Z,51.59
2024-05-09T06:21:16.323Z,51.64
2024-05-09T06:22:15.136Z,51.69
2024-05-09T06:23:15.194Z,50.62
2024-05-09T06:24:15.119Z,45.88
2024-05-09T06:25:15.131Z,43.82
2024-05-09T06:26:15.170Z,50.84
2024-05-09T06:27:15.104Z,53.58
2024-05-09T06:28:15.140Z,53.12
2024-05-09T06:29:15.127Z,53.57
2024-05-09T06:30:25.621Z,53.26
2024-05-09T06:31:16.079Z,53.37
2024-05-09T06:32:15.129Z,53.23
2024-05-09T06:33:16.480Z,51.98
2024-05-09T06:34:15.136Z,53.09
2024-05-09T06:35:15.161Z,54.00
2024-05-09T06:36:15.053Z,55.35
2024-05-09T06:37:15.042Z,54.21
2024-05-09T06:38:15.153Z,55.50
2024-05-09T06:39:15.035Z,55.37
2024-05-09T06:40:21.256Z,54.04
2024-05-09T06:41:16.053Z,54.06
2024-05-09T06:42:15.023Z,53.96
2024-05-09T06:43:16.836Z,53.28
2024-05-09T06:44:15.047Z,54.07
2024-05-09T06:45:15.009Z,53.84
2024-05-09T06:46:14.997Z,52.77
2024-05-09T06:47:15.045Z,48.58
2024-05-09T06:48:15.180Z,49.60
2024-05-09T06:49:15.174Z,51.78
2024-05-09T06:50:23.297Z,50.10
2024-05-09T06:51:16.040Z,50.30
2024-05-09T06:52:14.970Z,50.38
2024-05-09T06:53:15.242Z,49.32
2024-05-09T06:54:14.938Z,50.24
2024-05-09T06:55:14.932Z,45.32
2024-05-09T06:56:14.977Z,51.34
2024-05-09T06:57:14.914Z,50.00
2024-05-09T06:58:14.917Z,50.44
2024-05-09T06:59:14.997Z,51.56
2024-05-09T07:00:22.833Z,50.05
2024-05-09T07:01:16.040Z,50.10
2024-05-09T07:02:15.133Z,50.21
2024-05-09T07:03:17.344Z,49.51
2024-05-09T07:04:15.158Z,48.70
2024-05-09T07:05:15.046Z,45.46
2024-05-09T07:06:14.969Z,41.08
2024-05-09T07:07:14.918Z,38.79
2024-05-09T07:08:15.053Z,34.93
2024-05-09T07:09:14.889Z,49.35
2024-05-09T07:10:21.994Z,50.19
2024-05-09T07:11:15.981Z,43.44
2024-05-09T07:12:14.950Z,33.51
2024-05-09T07:13:15.420Z,31.00
2024-05-09T07:14:14.862Z,26.06
2024-05-09T07:15:14.795Z,21.19
2024-05-09T07:16:14.778Z,43.60
2024-05-09T07:17:14.908Z,56.18
2024-05-09T07:18:14.978Z,60.09
2024-05-09T07:19:15.059Z,63.93
2024-05-09T07:20:23.126Z,69.63
2024-05-09T07:21:15.835Z,69.78
2024-05-09T07:22:14.694Z,70.27
2024-05-09T07:23:14.749Z,71.76
2024-05-09T07:24:14.674Z,75.35
2024-05-09T07:25:14.707Z,79.55
2024-05-09T07:26:14.676Z,83.57
2024-05-09T07:27:14.656Z,83.75
2024-05-09T07:28:14.761Z,84.41
2024-05-09T07:29:14.715Z,85.70
2024-05-09T07:30:22.909Z,87.62
2024-05-09T07:31:15.630Z,87.75
2024-05-09T07:32:14.739Z,87.99
2024-05-09T07:33:14.764Z,88.56
2024-05-09T07:34:14.836Z,90.22
2024-05-09T07:35:14.672Z,91.39
2024-05-09T07:36:14.603Z,93.07
2024-05-09T07:37:14.599Z,91.40
2024-05-09T07:38:14.837Z,90.62
2024-05-09T07:39:14.692Z,89.55
2024-05-09T07:40:24.180Z,89.91
2024-05-09T07:41:15.581Z,89.95
2024-05-09T07:42:14.636Z,89.91
2024-05-09T07:43:15.154Z,90.14
2024-05-09T07:44:14.693Z,89.37
2024-05-09T07:45:29.989Z,91.17
2024-05-09T07:48:28.649Z,90.03
2024-05-09T07:49:45.377Z,90.08
2024-05-09T07:53:29.763Z,90.23
2024-05-09T07:53:37.827Z,90.33
2024-05-09T07:54:15.675Z,90.40
2024-05-09T07:55:14.698Z,92.26
2024-05-09T07:56:14.720Z,94.85
2024-05-09T07:57:14.687Z,98.61
2024-05-09T07:58:14.549Z,101.26
2024-05-09T07:59:14.503Z,94.45
2024-05-09T08:00:17.307Z,88.97
2024-05-09T08:01:15.614Z,80.27
2024-05-09T08:02:14.615Z,70.92
2024-05-09T08:03:14.510Z,60.67
2024-05-09T08:04:14.523Z,52.35
2024-05-09T08:05:14.609Z,48.10
2024-05-09T08:06:14.561Z,52.41
2024-05-09T08:07:14.541Z,50.00
2024-05-09T08:08:14.374Z,51.18
2024-05-09T08:09:20.777Z,50.00
2024-05-09T08:10:19.160Z,43.67
2024-05-09T08:11:15.341Z,37.37
2024-05-09T08:12:14.276Z,27.62
2024-05-09T08:13:14.328Z,24.06
2024-05-09T08:14:14.225Z,18.60
2024-05-09T08:15:14.215Z,17.12
2024-05-09T08:16:14.428Z,37.01
2024-05-09T08:17:14.211Z,53.14
2024-05-09T08:18:14.330Z,53.17
2024-05-09T08:19:14.209Z,47.71
2024-05-09T08:20:22.848Z,50.00
2024-05-09T08:21:15.108Z,48.51
2024-05-09T08:22:14.174Z,40.89
2024-05-09T08:23:14.059Z,39.72
2024-05-09T08:24:14.036Z,35.23
2024-05-09T08:25:14.528Z,32.14
2024-05-09T08:26:14.002Z,50.00
2024-05-09T08:27:13.956Z,50.34
2024-05-09T08:28:14.266Z,51.24
2024-05-09T08:29:13.901Z,50.00
2024-05-09T08:30:21.846Z,51.82
2024-05-09T08:31:15.075Z,51.92
2024-05-09T08:32:13.920Z,52.00
2024-05-09T08:33:13.945Z,53.71
2024-05-09T08:34:13.993Z,60.21
2024-05-09T08:35:13.737Z,66.76
2024-05-09T08:36:13.730Z,74.23
2024-05-09T08:37:21.173Z,78.85
2024-05-09T08:38:14.707Z,79.16
2024-05-09T08:39:13.636Z,81.02
2024-05-09T08:40:23.623Z,84.57
2024-05-09T08:41:14.605Z,79.59
2024-05-09T08:42:13.596Z,82.79
2024-05-09T08:43:13.767Z,88.07
2024-05-09T08:44:13.553Z,98.03
2024-05-09T08:45:13.537Z,106.79
2024-05-09T08:46:13.698Z,112.01
2024-05-09T08:47:13.525Z,115.23
2024-05-09T08:48:14.804Z,117.10
2024-05-09T08:49:13.745Z,119.55
2024-05-09T08:50:23.567Z,122.76
2024-05-09T08:51:14.608Z,122.87
2024-05-09T08:52:13.563Z,123.16
2024-05-09T08:53:13.520Z,124.61
2024-05-09T08:54:13.494Z,127.42
2024-05-09T08:55:13.624Z,129.22
2024-05-09T08:56:13.469Z,132.02
2024-05-09T08:57:13.465Z,131.15
2024-05-09T08:58:13.798Z,131.33
2024-05-09T08:59:13.445Z,133.25
2024-05-09T09:00:18.029Z,133.29
2024-05-09T09:01:14.481Z,133.42
2024-05-09T09:02:13.792Z,133.91
2024-05-09T09:03:13.449Z,134.05
2024-05-09T09:04:13.590Z,133.35
2024-05-09T09:05:13.368Z,133.65
2024-05-09T09:06:13.297Z,133.38
2024-05-09T09:07:13.341Z,129.78
2024-05-09T09:08:13.265Z,129.61
2024-05-09T09:09:13.254Z,128.69
2024-05-09T09:11:13.286Z,127.13
2024-05-09T09:12:13.218Z,127.99
2024-05-09T09:13:13.294Z,127.42
2024-05-09T09:14:13.185Z,130.07
2024-05-09T09:15:13.171Z,127.85
2024-05-09T09:16:13.259Z,126.01
2024-05-09T09:17:13.182Z,124.14
2024-05-09T09:18:13.295Z,122.48
2024-05-09T09:19:13.234Z,126.40
2024-05-09T09:20:16.498Z,122.69
2024-05-09T09:21:14.125Z,122.14
2024-05-09T09:22:13.183Z,122.20
2024-05-09T09:23:13.096Z,120.89
2024-05-09T09:24:13.078Z,120.29
2024-05-09T09:25:13.111Z,116.48
2024-05-09T09:26:13.057Z,117.85
2024-05-09T09:27:13.046Z,118.68
2024-05-09T09:28:13.068Z,114.21
2024-05-09T09:29:13.024Z,113.60
2024-05-09T09:30:27.402Z,108.24
2024-05-09T09:31:14.054Z,108.27
2024-05-09T09:32:12.978Z,102.18
2024-05-09T09:33:13.112Z,99.52
2024-05-09T09:34:13.267Z,99.35
2024-05-09T09:35:12.916Z,93.82
2024-05-09T09:36:12.950Z,95.01
2024-05-09T09:37:12.912Z,95.40
2024-05-09T09:38:12.862Z,92.56
2024-05-09T09:39:12.847Z,89.43
2024-05-09T09:40:13.349Z,84.67
2024-05-09T09:41:12.976Z,81.28
2024-05-09T09:42:12.925Z,80.16
2024-05-09T09:43:13.036Z,85.24
2024-05-09T09:44:13.005Z,87.29
2024-05-09T09:45:12.998Z,91.48
2024-05-09T09:46:13.291Z,92.67
2024-05-09T09:47:13.137Z,96.39
2024-05-09T09:48:13.267Z,102.76
2024-05-09T09:49:13.258Z,105.93
2024-05-09T09:50:16.985Z,107.55
2024-05-09T09:51:14.220Z,107.61
2024-05-09T09:52:13.375Z,108.02
2024-05-09T09:53:13.196Z,108.97
2024-05-09T09:54:13.182Z,108.13
2024-05-09T09:55:13.331Z,108.22
2024-05-09T09:56:13.167Z,106.45
2024-05-09T09:57:13.183Z,108.35
2024-05-09T09:58:14.439Z,106.37
2024-05-09T09:59:13.171Z,104.12
2024-05-09T10:00:17.399Z,102.96
2024-05-09T10:01:14.218Z,103.03
2024-05-09T10:02:13.329Z,102.26
2024-05-09T10:03:13.254Z,103.04
2024-05-09T10:04:13.202Z,101.34
2024-05-09T10:05:13.187Z,100.23
2024-05-09T10:06:13.112Z,103.07
2024-05-09T10:07:13.128Z,100.63
2024-05-09T10:08:13.111Z,100.03
2024-05-09T10:09:13.073Z,104.55
2024-05-09T10:10:16.343Z,103.77
2024-05-09T10:11:14.091Z,103.92
2024-05-09T10:12:13.083Z,104.95
2024-05-09T10:13:13.760Z,105.75
2024-05-09T10:14:13.044Z,109.13
2024-05-09T10:15:13.035Z,113.84
2024-05-09T10:16:13.073Z,118.91
2024-05-09T10:17:13.093Z,117.63
2024-05-09T10:18:13.240Z,119.19
2024-05-09T10:19:13.077Z,118.20
2024-05-09T10:20:21.334Z,120.47
2024-05-09T10:21:14.018Z,120.57
2024-05-09T10:22:13.058Z,120.48
2024-05-09T10:23:13.001Z,120.73
2024-05-09T10:24:12.986Z,121.73
2024-05-09T10:25:13.050Z,122.68
2024-05-09T10:26:12.973Z,121.72
2024-05-09T10:27:12.972Z,121.23
2024-05-09T10:28:13.012Z,120.07
2024-05-09T10:29:12.982Z,120.52
2024-05-09T10:30:21.253Z,120.65
2024-05-09T10:31:14.190Z,120.66
2024-05-09T10:32:12.952Z,119.83
2024-05-09T10:33:13.142Z,118.03
2024-05-09T10:34:13.407Z,119.01
2024-05-09T10:35:12.989Z,119.80
2024-05-09T10:36:12.934Z,117.03
2024-05-09T10:37:12.962Z,118.14
2024-05-09T10:38:12.929Z,113.73
2024-05-09T10:39:12.920Z,114.29
2024-05-09T10:40:20.277Z,113.45
2024-05-09T10:41:13.935Z,113.35
2024-05-09T10:42:12.924Z,111.60
2024-05-09T10:43:12.978Z,109.43
2024-05-09T10:44:12.904Z,105.83
2024-05-09T10:45:12.903Z,104.29
2024-05-09T10:46:13.071Z,102.69
2024-05-09T10:47:12.972Z,100.04
2024-05-09T10:48:12.969Z,97.36
2024-05-09T10:49:13.015Z,96.38
2024-05-09T10:51:12.982Z,92.37
2024-05-09T10:52:13.087Z,92.03
2024-05-09T10:53:13.101Z,89.82
2024-05-09T10:54:13.110Z,89.59
2024-05-09T10:55:13.156Z,87.47
2024-05-09T10:56:13.132Z,85.96
2024-05-09T10:57:13.142Z,83.43
2024-05-09T10:58:13.247Z,82.57
2024-05-09T10:59:13.166Z,81.55
2024-05-09T11:00:19.457Z,81.01
2024-05-09T11:01:14.523Z,80.98
2024-05-09T11:02:13.287Z,79.81
2024-05-09T11:03:13.224Z,76.72
2024-05-09T11:04:13.365Z,77.06
2024-05-09T11:05:13.305Z,76.39
2024-05-09T11:06:13.168Z,73.49
2024-05-09T11:07:13.259Z,71.06
2024-05-09T11:08:13.169Z,67.72
2024-05-09T11:09:13.167Z,66.65
2024-05-09T11:10:17.917Z,65.98
2024-05-09T11:11:14.180Z,66.08
2024-05-09T11:12:13.228Z,66.23
2024-05-09T11:13:13.289Z,66.01
2024-05-09T11:14:13.165Z,63.13
2024-05-09T11:15:13.155Z,60.31
2024-05-09T11:16:13.309Z,57.59
2024-05-09T11:17:13.187Z,56.88
2024-05-09T11:18:13.269Z,58.09
2024-05-09T11:19:13.329Z,57.47
2024-05-09T11:20:19.647Z,56.88
2024-05-09T11:21:14.298Z,56.90
2024-05-09T11:22:13.242Z,52.48
2024-05-09T11:23:13.148Z,48.88
2024-05-09T11:24:13.150Z,48.12
2024-05-09T11:25:13.386Z,45.76
2024-05-09T11:26:13.141Z,51.53
2024-05-09T11:27:13.137Z,52.22
2024-05-09T11:28:13.277Z,50.94
2024-05-09T11:29:15.006Z,50.44
2024-05-09T11:30:20.848Z,52.41
2024-05-09T11:31:14.313Z,52.17
2024-05-09T11:32:13.256Z,50.20
2024-05-09T11:33:13.278Z,45.35
2024-05-09T11:34:13.306Z,45.03
2024-05-09T11:35:13.248Z,42.72
2024-05-09T11:36:13.263Z,51.26
2024-05-09T11:37:13.454Z,51.20
2024-05-09T11:38:13.267Z,50.93
2024-05-09T11:39:13.240Z,50.78
2024-05-09T11:40:21.150Z,50.01
2024-05-09T11:41:14.242Z,50.08
2024-05-09T11:42:13.236Z,50.24
2024-05-09T11:43:13.310Z,51.07
2024-05-09T11:44:13.277Z,51.50
2024-05-09T11:45:13.235Z,50.77
2024-05-09T11:46:13.445Z,50.17
2024-05-09T11:47:13.268Z,52.29
2024-05-09T11:48:13.351Z,51.56
2024-05-09T11:49:13.371Z,50.99
2024-05-09T11:50:22.329Z,50.56
2024-05-09T11:51:14.223Z,50.63
2024-05-09T11:52:13.276Z,50.65
2024-05-09T11:53:13.244Z,50.57
2024-05-09T11:54:13.281Z,46.52
2024-05-09T11:55:13.246Z,43.09
2024-05-09T11:56:13.201Z,50.00
2024-05-09T11:57:13.205Z,50.46
2024-05-09T11:58:13.464Z,50.02
2024-05-09T11:59:13.201Z,50.40
2024-05-09T12:00:18.240Z,51.62
2024-05-09T12:01:14.257Z,51.64
2024-05-09T12:02:13.419Z,47.06
2024-05-09T12:03:13.245Z,46.98
2024-05-09T12:04:13.376Z,45.08
2024-05-09T12:05:13.250Z,45.58
2024-05-09T12:06:13.208Z,51.44
2024-05-09T12:07:13.258Z,50.36
2024-05-09T12:08:13.176Z,50.53
2024-05-09T12:09:13.163Z,52.23
2024-05-09T12:10:16.853Z,51.58
2024-05-09T12:11:14.374Z,50.95
2024-05-09T12:12:13.171Z,52.08
2024-05-09T12:13:13.226Z,52.71
2024-05-09T12:14:13.162Z,53.88
2024-05-09T12:15:13.164Z,59.32
2024-05-09T12:16:13.268Z,57.80
2024-05-09T12:17:13.246Z,57.24
2024-05-09T12:18:13.200Z,58.13
2024-05-09T12:19:13.163Z,56.72
2024-05-09T12:20:20.962Z,55.33
2024-05-09T12:21:14.155Z,55.41
2024-05-09T12:22:13.339Z,55.55
2024-05-09T12:23:13.199Z,56.42
2024-05-09T12:24:16.846Z,57.45
2024-05-09T12:25:14.385Z,55.54
2024-05-09T12:26:13.160Z,56.66
2024-05-09T12:27:13.165Z,57.71
2024-05-09T12:28:13.261Z,61.35
2024-05-09T12:29:13.177Z,67.20
2024-05-09T12:30:20.750Z,69.95
2024-05-09T12:31:14.209Z,70.03
2024-05-09T12:32:13.197Z,70.54
2024-05-09T12:33:13.691Z,71.29
2024-05-09T12:34:13.273Z,73.68
2024-05-09T12:35:13.138Z,74.87
2024-05-09T12:36:13.120Z,78.51
2024-05-09T12:37:13.210Z,73.50
2024-05-09T12:38:13.121Z,76.13
2024-05-09T12:39:13.110Z,78.71
2024-05-09T12:40:22.440Z,76.77
2024-05-09T12:41:14.107Z,76.93
2024-05-09T12:42:25.911Z,77.04
2024-05-09T12:43:14.162Z,76.88
2024-05-09T12:44:13.102Z,77.29
2024-05-09T12:45:13.086Z,78.94
2024-05-09T12:46:13.122Z,81.10
2024-05-09T12:47:13.095Z,86.36
2024-05-09T12:48:13.573Z,86.31
2024-05-09T12:49:15.663Z,88.74
2024-05-09T12:50:21.911Z,87.48